createdAt,value
2022-08-05T00:00:17.641Z,5.07
2022-08-05T00:02:51.080Z,4.80
2022-08-05T00:06:02.911Z,4.90
2022-08-05T00:08:26.437Z,4.97
2022-08-05T00:11:00.873Z,5.00
2022-08-05T00:13:39.153Z,4.90
2022-08-05T00:16:08.824Z,4.78
2022-08-05T00:18:37.967Z,4.63
2022-08-05T00:21:06.873Z,4.72
2022-08-05T00:23:46.028Z,4.75
2022-08-05T00:26:23.318Z,4.90
2022-08-05T00:28:51.994Z,4.70
2022-08-05T00:31:53.609Z,4.60
2022-08-05T00:34:56.798Z,4.60
2022-08-05T00:37:11.344Z,4.72
2022-08-05T00:39:44.263Z,4.75
2022-08-05T00:42:33.872Z,4.90
2022-08-05T00:45:02.067Z,5.07
2022-08-05T00:47:53.200Z,4.60
2022-08-05T00:50:18.368Z,4.65
2022-08-05T00:52:49.159Z,4.25
2022-08-05T00:55:18.988Z,4.47
2022-08-05T00:57:57.868Z,4.90
2022-08-05T01:00:28.189Z,4.32
2022-08-05T01:02:56.605Z,4.45
2022-08-05T01:05:24.858Z,4.70
2022-08-05T01:08:31.601Z,4.65
2022-08-05T01:10:52.146Z,4.75
2022-08-05T01:13:27.433Z,4.95
2022-08-05T01:16:26.120Z,3.97
2022-08-05T01:18:57.864Z,4.20
2022-08-05T01:21:50.619Z,4.70
2022-08-05T01:24:30.281Z,4.10
2022-08-05T01:27:19.117Z,4.30
2022-08-05T01:29:51.730Z,4.40
2022-08-05T01:32:22.242Z,4.45
2022-08-05T01:34:52.177Z,4.47
2022-08-05T01:37:25.056Z,4.50
2022-08-05T01:39:54.861Z,4.40
2022-08-05T01:42:27.775Z,4.78
2022-08-05T01:44:59.194Z,4.47
2022-08-05T01:47:38.745Z,4.20
2022-08-05T01:50:15.276Z,4.68
2022-08-05T01:52:44.602Z,4.55
2022-08-05T01:55:18.823Z,4.40
2022-08-05T01:58:10.552Z,4.18
2022-08-05T02:00:37.972Z,4.32
2022-08-05T02:03:24.017Z,4.38
2022-08-05T02:05:53.612Z,4.22
2022-08-05T02:08:31.112Z,4.10
2022-08-05T02:11:01.328Z,4.13
2022-08-05T02:13:36.477Z,4.07
2022-08-05T02:16:22.280Z,4.65
2022-08-05T02:18:54.513Z,4.00
2022-08-05T02:21:26.232Z,4.28
2022-08-05T02:23:58.102Z,4.30
2022-08-05T02:26:34.389Z,4.45
2022-08-05T02:29:02.514Z,4.35
2022-08-05T02:31:34.637Z,4.13
2022-08-05T02:34:05.897Z,4.30
2022-08-05T02:36:37.618Z,4.22
2022-08-05T02:39:08.846Z,4.22
2022-08-05T02:41:57.922Z,4.32
2022-08-05T02:44:25.560Z,3.97
2022-08-05T02:47:00.407Z,4.28
2022-08-05T02:49:37.078Z,4.13
2022-08-05T02:52:08.019Z,4.22
2022-08-05T02:54:37.744Z,4.50
2022-08-05T02:58:11.821Z,4.35
2022-08-05T02:59:59.665Z,4.40
2022-08-05T03:02:32.975Z,4.35
2022-08-05T03:05:01.072Z,4.63
2022-08-05T03:08:01.662Z,4.28
2022-08-05T03:10:22.062Z,4.53
2022-08-05T03:12:53.543Z,4.30
2022-08-05T03:15:23.392Z,4.18
2022-08-05T03:17:55.953Z,4.30
2022-08-05T03:20:26.434Z,4.40
2022-08-05T03:22:55.360Z,4.20
2022-08-05T03:25:33.268Z,4.10
2022-08-05T03:28:14.699Z,4.43
2022-08-05T03:30:47.119Z,4.10
2022-08-05T03:33:16.718Z,4.40
2022-08-05T03:35:45.982Z,4.20
2022-08-05T03:38:14.541Z,4.07
2022-08-05T03:40:45.338Z,4.47
2022-08-05T03:44:08.306Z,4.40
2022-08-05T03:46:04.156Z,4.30
2022-08-05T03:48:35.557Z,4.43
2022-08-05T03:52:37.937Z,4.35
2022-08-05T03:55:00.482Z,4.07
2022-08-05T03:56:47.175Z,4.22
2022-08-05T03:59:20.476Z,4.47
2022-08-05T04:01:50.302Z,4.18
2022-08-05T04:04:21.359Z,4.20
2022-08-05T04:06:50.996Z,4.13
2022-08-05T04:09:20.430Z,4.00
2022-08-05T04:11:56.829Z,4.13
2022-08-05T04:14:29.503Z,4.30
2022-08-05T04:16:59.827Z,6.78
2022-08-05T04:19:29.873Z,21.95
2022-08-05T04:22:09.624Z,28.33
2022-08-05T04:24:52.827Z,32.22
2022-08-05T04:27:33.229Z,23.15
2022-08-05T04:30:10.682Z,16.27
2022-08-05T04:32:38.996Z,10.13
2022-08-05T04:35:17.357Z,7.88
2022-08-05T04:38:02.214Z,6.68
2022-08-05T04:40:36.240Z,6.22
2022-08-05T04:43:04.457Z,5.65
2022-08-05T04:45:48.267Z,5.60
2022-08-05T04:48:26.957Z,5.22
2022-08-05T04:51:03.513Z,5.15
2022-08-05T04:53:39.446Z,5.18
2022-08-05T04:56:33.191Z,4.80
2022-08-05T04:58:56.791Z,4.80
2022-08-05T05:02:04.119Z,5.03
2022-08-05T05:04:13.002Z,4.72
2022-08-05T05:06:49.086Z,5.20
2022-08-05T05:09:20.249Z,4.95
2022-08-05T05:11:55.458Z,5.07
2022-08-05T05:14:28.179Z,5.10
2022-08-05T05:17:00.371Z,4.80
2022-08-05T05:19:36.366Z,4.90
2022-08-05T05:22:23.526Z,4.80
2022-08-05T05:24:56.916Z,4.70
2022-08-05T05:27:45.250Z,5.30
2022-08-05T05:30:28.755Z,4.38
2022-08-05T05:33:00.407Z,4.80
2022-08-05T05:35:34.341Z,5.07
2022-08-05T05:38:13.461Z,4.93
2022-08-05T05:40:49.838Z,4.63
2022-08-05T05:43:27.527Z,4.90
2022-08-05T05:46:12.233Z,4.60
2022-08-05T05:48:44.171Z,4.50
2022-08-05T05:51:15.216Z,4.65
2022-08-05T05:53:54.334Z,4.57
2022-08-05T05:56:32.453Z,4.57
2022-08-05T05:59:05.361Z,4.57
2022-08-05T06:01:37.811Z,5.00
2022-08-05T06:04:08.081Z,4.70
2022-08-05T06:06:36.459Z,4.90
2022-08-05T06:09:07.635Z,4.53
2022-08-05T06:11:39.364Z,4.90
2022-08-05T06:14:07.623Z,4.70
2022-08-05T06:16:37.280Z,4.40
2022-08-05T06:19:07.438Z,5.00
2022-08-05T06:21:38.752Z,4.68
2022-08-05T06:24:14.647Z,4.70
2022-08-05T06:26:51.747Z,4.90
2022-08-05T06:29:43.135Z,4.65
2022-08-05T06:32:24.943Z,4.80
2022-08-05T06:34:57.404Z,4.90
2022-08-05T06:37:55.666Z,4.85
2022-08-05T06:40:18.249Z,5.00
2022-08-05T06:42:51.555Z,4.82
2022-08-05T06:45:44.730Z,4.85
2022-08-05T06:48:37.016Z,5.05
2022-08-05T06:50:57.898Z,4.82
2022-08-05T06:53:28.700Z,5.07
2022-08-05T06:55:59.288Z,4.80
2022-08-05T06:58:29.682Z,4.78
2022-08-05T07:01:03.784Z,5.00
2022-08-05T07:03:33.206Z,4.65
2022-08-05T07:06:06.114Z,5.00
2022-08-05T07:08:47.928Z,4.90
2022-08-05T07:11:22.312Z,4.97
2022-08-05T07:14:15.372Z,4.88
2022-08-05T07:17:58.331Z,4.72
2022-08-05T07:22:30.056Z,4.90
2022-08-05T07:25:21.872Z,4.68
2022-08-05T07:27:58.099Z,4.80
2022-08-05T07:30:33.320Z,4.55
2022-08-05T07:33:05.323Z,4.60
2022-08-05T07:36:04.134Z,4.50
2022-08-05T07:38:32.209Z,4.30
2022-08-05T07:42:09.396Z,4.63
2022-08-05T07:43:55.114Z,4.50
2022-08-05T07:46:26.161Z,4.40
2022-08-05T07:49:01.614Z,7.40
2022-08-05T07:51:37.488Z,5.03
2022-08-05T07:54:09.983Z,5.13
2022-08-05T07:57:02.704Z,5.10
2022-08-05T07:59:38.360Z,5.13
2022-08-05T08:02:10.569Z,5.47
2022-08-05T08:04:46.273Z,5.38
2022-08-05T08:07:22.206Z,4.82
2022-08-05T08:09:52.554Z,5.20
2022-08-05T08:12:33.294Z,4.90
2022-08-05T08:15:13.888Z,5.68
2022-08-05T08:17:43.962Z,5.53
2022-08-05T08:20:44.221Z,5.47
2022-08-05T08:23:07.551Z,4.75
2022-08-05T08:26:00.633Z,4.55
2022-08-05T08:28:36.868Z,5.38
2022-08-05T08:31:14.895Z,4.97
2022-08-05T08:33:45.717Z,4.88
2022-08-05T08:36:48.949Z,4.82
2022-08-05T08:39:03.206Z,4.63
2022-08-05T08:41:50.679Z,5.00
2022-08-05T08:45:16.892Z,4.72
2022-08-05T08:47:47.370Z,4.70
2022-08-05T08:50:12.925Z,4.90
2022-08-05T08:52:51.692Z,4.70
2022-08-05T08:56:01.825Z,4.55
2022-08-05T08:58:12.828Z,4.68
2022-08-05T09:00:42.288Z,4.78
2022-08-05T09:03:12.349Z,4.40
2022-08-05T09:06:09.234Z,4.50
2022-08-05T09:08:32.580Z,4.63
2022-08-05T09:11:00.742Z,4.80
2022-08-05T09:13:31.769Z,4.90
2022-08-05T09:16:18.112Z,4.30
2022-08-05T09:18:48.707Z,4.80
2022-08-05T09:21:20.900Z,4.70
2022-08-05T09:24:05.647Z,4.68
2022-08-05T09:26:35.018Z,4.40
2022-08-05T09:29:07.080Z,4.57
2022-08-05T09:32:42.167Z,4.20
2022-08-05T09:34:26.644Z,4.10
2022-08-05T09:36:59.721Z,4.82
2022-08-05T09:39:45.400Z,4.00
2022-08-05T09:42:20.269Z,4.10
2022-08-05T09:44:56.160Z,4.30
2022-08-05T09:47:28.662Z,4.35
2022-08-05T09:50:18.155Z,4.40
2022-08-05T09:53:04.338Z,4.20
2022-08-05T09:55:57.697Z,4.32
2022-08-05T09:58:24.651Z,4.20
2022-08-05T10:00:58.320Z,4.25
2022-08-05T10:03:56.768Z,3.92
2022-08-05T10:06:16.426Z,4.32
2022-08-05T10:08:54.001Z,4.10
2022-08-05T10:11:23.817Z,4.07
2022-08-05T10:13:59.464Z,4.18
2022-08-05T10:16:34.045Z,4.10
2022-08-05T10:19:08.626Z,4.20
2022-08-05T10:21:40.326Z,4.57
2022-08-05T10:24:10.942Z,4.18
2022-08-05T10:26:51.717Z,4.00
2022-08-05T10:29:23.701Z,4.30
2022-08-05T10:32:52.277Z,4.10
2022-08-05T10:35:00.892Z,4.25
2022-08-05T10:37:44.392Z,4.07
2022-08-05T10:40:19.527Z,4.35
2022-08-05T10:42:49.175Z,4.63
2022-08-05T10:45:23.919Z,4.40
2022-08-05T10:48:35.265Z,4.50
2022-08-05T10:51:21.401Z,4.45
2022-08-05T10:53:56.115Z,4.68
2022-08-05T10:56:27.895Z,4.30
2022-08-05T10:59:07.129Z,4.68
2022-08-05T11:02:07.719Z,4.18
2022-08-05T11:04:44.290Z,4.15
2022-08-05T11:07:16.255Z,4.10
2022-08-05T11:09:47.216Z,4.65
2022-08-05T11:12:50.232Z,4.10
2022-08-05T11:15:23.983Z,4.13
2022-08-05T11:18:25.251Z,4.30
2022-08-05T11:20:53.858Z,4.03
2022-08-05T11:23:33.692Z,3.45
2022-08-05T11:26:28.466Z,3.80
2022-08-05T11:29:12.077Z,3.83
2022-08-05T11:31:54.484Z,3.75
2022-08-05T11:34:38.722Z,3.70
2022-08-05T11:38:28.890Z,3.70
2022-08-05T11:40:02.911Z,3.70
2022-08-05T11:42:40.342Z,3.60
2022-08-05T11:45:23.430Z,4.00
2022-08-05T11:47:58.892Z,4.07
2022-08-05T11:50:27.029Z,3.63
2022-08-05T11:52:57.920Z,3.97
2022-08-05T11:55:32.175Z,3.80
2022-08-05T11:58:10.029Z,3.90
2022-08-05T12:00:41.307Z,3.90
2022-08-05T12:03:28.406Z,3.65
2022-08-05T12:06:06.287Z,4.15
2022-08-05T12:08:49.962Z,3.60
2022-08-05T12:11:20.737Z,4.07
2022-08-05T12:13:59.417Z,4.25
2022-08-05T12:16:34.621Z,4.30
2022-08-05T12:19:08.422Z,4.28
2022-08-05T12:21:39.252Z,4.38
2022-08-05T12:24:08.938Z,4.28
2022-08-05T12:26:39.674Z,4.13
2022-08-05T12:29:16.374Z,4.15
2022-08-05T12:31:50.231Z,3.97
2022-08-05T12:34:24.029Z,4.25
2022-08-05T12:36:54.354Z,4.25
2022-08-05T12:39:23.662Z,4.40
2022-08-05T12:41:59.012Z,4.47
2022-08-05T12:44:34.130Z,4.63
2022-08-05T12:47:02.898Z,4.20
2022-08-05T12:50:01.964Z,4.20
2022-08-05T12:52:37.727Z,4.50
2022-08-05T12:55:23.012Z,4.00
2022-08-05T12:58:52.683Z,4.03
2022-08-05T13:02:04.263Z,4.32
2022-08-05T13:03:33.243Z,4.35
2022-08-05T13:06:01.678Z,4.20
2022-08-05T13:08:32.223Z,4.47
2022-08-05T13:11:02.081Z,4.25
2022-08-05T13:14:04.964Z,4.30
2022-08-05T13:16:20.755Z,4.40
2022-08-05T13:18:55.048Z,4.30
2022-08-05T13:21:28.383Z,4.68
2022-08-05T13:24:08.721Z,4.47
2022-08-05T13:26:37.250Z,4.40
2022-08-05T13:29:05.573Z,4.30
2022-08-05T13:32:03.951Z,4.55
2022-08-05T13:34:26.209Z,4.45
2022-08-05T13:36:54.687Z,4.70
2022-08-05T13:40:13.027Z,4.68
2022-08-05T13:42:14.406Z,4.55
2022-08-05T13:44:45.751Z,4.50
2022-08-05T13:47:35.008Z,4.90
2022-08-05T13:50:04.507Z,4.70
2022-08-05T13:52:35.654Z,4.93
2022-08-05T13:55:07.737Z,4.57
2022-08-05T13:57:51.235Z,4.88
2022-08-05T14:00:26.802Z,4.88
2022-08-05T14:02:57.707Z,4.70
2022-08-05T14:05:48.154Z,4.80
2022-08-05T14:08:20.833Z,4.75
2022-08-05T14:10:59.745Z,4.50
2022-08-05T14:13:43.549Z,4.93
2022-08-05T14:16:17.007Z,4.80
2022-08-05T14:18:46.744Z,4.40
2022-08-05T14:22:06.963Z,4.45
2022-08-05T14:24:03.145Z,4.43
2022-08-05T14:26:36.879Z,4.63
2022-08-05T14:29:16.003Z,4.40
2022-08-05T14:32:02.770Z,4.47
2022-08-05T14:34:35.586Z,4.45
2022-08-05T14:37:04.289Z,4.22
2022-08-05T14:39:49.619Z,4.68
2022-08-05T14:42:22.256Z,4.20
2022-08-05T14:44:50.496Z,4.40
2022-08-05T14:48:03.500Z,4.45
2022-08-05T14:50:17.837Z,4.75
2022-08-05T14:52:57.761Z,4.25
2022-08-05T14:55:38.466Z,4.78
2022-08-05T14:58:12.003Z,4.38
2022-08-05T15:00:57.983Z,4.50
2022-08-05T15:03:27.270Z,4.40
2022-08-05T15:06:07.314Z,4.93
2022-08-05T15:08:59.449Z,4.60
2022-08-05T15:11:51.309Z,4.88
2022-08-05T15:14:34.339Z,4.32
2022-08-05T15:17:04.312Z,4.50
2022-08-05T15:19:33.666Z,5.00
2022-08-05T15:22:03.271Z,4.40
2022-08-05T15:24:31.774Z,4.85
2022-08-05T15:27:00.039Z,4.55
2022-08-05T15:29:30.031Z,4.53
2022-08-05T15:32:02.389Z,4.80
2022-08-05T15:34:33.522Z,4.90
2022-08-05T15:37:06.594Z,5.10
2022-08-05T15:40:58.699Z,4.90
2022-08-05T15:42:56.262Z,4.68
2022-08-05T15:45:18.734Z,4.70
2022-08-05T15:47:55.301Z,4.80
2022-08-05T15:50:25.994Z,4.85
2022-08-05T15:52:56.461Z,4.70
2022-08-05T15:56:01.452Z,4.60
2022-08-05T15:58:16.357Z,5.18
2022-08-05T16:00:50.854Z,5.07
2022-08-05T16:03:32.848Z,5.10
2022-08-05T16:06:02.424Z,4.80
2022-08-05T16:08:32.071Z,5.00
2022-08-05T16:11:00.192Z,5.50
2022-08-05T16:13:32.053Z,5.43
2022-08-05T16:16:03.817Z,5.30
2022-08-05T16:18:32.865Z,5.72
2022-08-05T16:21:04.246Z,5.50
2022-08-05T16:23:53.708Z,5.43
2022-08-05T16:26:26.197Z,5.30
2022-08-05T16:28:55.227Z,5.80
2022-08-05T16:31:23.352Z,5.70
2022-08-05T16:33:52.129Z,5.20
2022-08-05T16:36:24.030Z,5.85
2022-08-05T16:38:57.920Z,5.65
2022-08-05T16:42:14.782Z,5.43
2022-08-05T16:44:18.684Z,5.75
2022-08-05T16:46:55.448Z,5.53
2022-08-05T16:49:26.357Z,5.05
2022-08-05T16:51:54.738Z,5.20
2022-08-05T16:54:28.962Z,4.85
2022-08-05T16:57:00.943Z,4.88
2022-08-05T16:59:30.826Z,5.13
2022-08-05T17:01:59.500Z,5.63
2022-08-05T17:04:29.135Z,4.97
2022-08-05T17:07:00.899Z,5.10
2022-08-05T17:09:57.258Z,5.47
2022-08-05T17:12:22.385Z,5.47
2022-08-05T17:14:50.972Z,5.40
2022-08-05T17:17:19.846Z,5.25
2022-08-05T17:19:53.869Z,5.50
2022-08-05T17:22:25.610Z,5.57
2022-08-05T17:24:57.702Z,5.40
2022-08-05T17:27:27.406Z,5.20
2022-08-05T17:30:02.826Z,5.50
2022-08-05T17:32:33.751Z,5.43
2022-08-05T17:35:03.215Z,5.25
2022-08-05T17:37:41.617Z,5.30
2022-08-05T17:40:16.022Z,5.93
2022-08-05T17:42:50.552Z,6.05
2022-08-05T17:45:21.793Z,5.65
2022-08-05T17:47:54.406Z,5.40
2022-08-05T17:50:28.341Z,5.57
2022-08-05T17:52:59.053Z,6.10
2022-08-05T17:55:37.121Z,5.78
2022-08-05T17:58:12.585Z,6.30
2022-08-05T18:00:45.449Z,5.47
2022-08-05T18:03:33.211Z,6.45
2022-08-05T18:06:11.164Z,6.07
2022-08-05T18:08:44.876Z,6.22
2022-08-05T18:11:23.306Z,6.20
2022-08-05T18:13:54.603Z,6.32
2022-08-05T18:16:23.612Z,6.00
2022-08-05T18:18:51.841Z,6.20
2022-08-05T18:21:22.884Z,6.10
2022-08-05T18:23:54.629Z,5.65
2022-08-05T18:26:27.578Z,5.70
2022-08-05T18:28:57.681Z,5.50
2022-08-05T18:31:25.833Z,5.60
2022-08-05T18:34:06.101Z,5.80
2022-08-05T18:36:41.290Z,5.55
2022-08-05T18:39:42.435Z,5.47
2022-08-05T18:42:04.975Z,5.57
2022-08-05T18:44:51.457Z,5.72
2022-08-05T18:47:26.892Z,6.22
2022-08-05T18:50:13.325Z,5.57
2022-08-05T18:52:51.164Z,5.40
2022-08-05T18:55:20.100Z,5.70
2022-08-05T18:57:53.176Z,5.70
2022-08-05T19:00:27.177Z,5.50
2022-08-05T19:02:57.544Z,5.70
2022-08-05T19:06:11.984Z,5.80
2022-08-05T19:08:21.838Z,5.53
2022-08-05T19:10:50.645Z,5.80
2022-08-05T19:13:20.252Z,5.30
2022-08-05T19:15:59.645Z,5.55
2022-08-05T19:18:29.013Z,5.43
2022-08-05T19:20:57.218Z,5.30
2022-08-05T19:24:06.102Z,5.32
2022-08-05T19:26:13.956Z,5.28
2022-08-05T19:28:43.942Z,5.50
2022-08-05T19:31:13.330Z,5.28
2022-08-05T19:33:48.339Z,5.55
2022-08-05T19:36:25.193Z,5.65
2022-08-05T19:38:54.875Z,5.40
2022-08-05T19:42:05.415Z,5.40
2022-08-05T19:44:16.877Z,5.35
2022-08-05T19:46:46.589Z,5.32
2022-08-05T19:49:16.877Z,5.00
2022-08-05T19:52:08.294Z,4.85
2022-08-05T19:54:34.307Z,5.38
2022-08-05T19:57:06.649Z,5.03
2022-08-05T20:00:00.198Z,5.63
2022-08-05T20:02:31.254Z,4.95
2022-08-05T20:05:00.192Z,5.10
2022-08-05T20:07:47.311Z,5.10
2022-08-05T20:10:17.295Z,5.35
2022-08-05T20:12:49.235Z,5.00
2022-08-05T20:15:22.760Z,5.18
2022-08-05T20:18:10.792Z,5.00
2022-08-05T20:20:56.377Z,5.00
2022-08-05T20:23:39.472Z,4.93
2022-08-05T20:26:16.613Z,4.90
2022-08-05T20:28:47.985Z,4.90
2022-08-05T20:31:17.692Z,5.55
2022-08-05T20:33:50.211Z,4.85
2022-08-05T20:36:18.357Z,5.00
2022-08-05T20:38:53.573Z,5.05
2022-08-05T20:41:27.502Z,4.43
2022-08-05T20:44:16.911Z,5.00
2022-08-05T20:46:47.466Z,4.82
2022-08-05T20:49:23.913Z,4.80
2022-08-05T20:51:53.471Z,4.72
2022-08-05T20:54:22.126Z,4.50
2022-08-05T20:56:50.261Z,4.90
2022-08-05T20:59:26.972Z,4.88
2022-08-05T21:02:08.510Z,5.40
2022-08-05T21:04:37.644Z,4.93
2022-08-05T21:07:06.189Z,5.05
2022-08-05T21:09:37.251Z,4.80
2022-08-05T21:12:19.885Z,4.90
2022-08-05T21:14:48.007Z,4.90
2022-08-05T21:17:17.502Z,5.20
2022-08-05T21:19:48.052Z,4.72
2022-08-05T21:22:21.743Z,5.15
2022-08-05T21:24:52.769Z,4.95
2022-08-05T21:27:24.705Z,5.05
2022-08-05T21:29:55.821Z,5.18
2022-08-05T21:32:26.822Z,4.93
2022-08-05T21:35:16.712Z,5.07
2022-08-05T21:37:47.185Z,5.20
2022-08-05T21:40:16.577Z,4.90
2022-08-05T21:42:45.766Z,5.03
2022-08-05T21:45:24.098Z,4.90
2022-08-05T21:48:07.991Z,4.95
2022-08-05T21:50:36.683Z,5.22
2022-08-05T21:53:16.623Z,4.78
2022-08-05T21:56:05.277Z,4.88
2022-08-05T21:58:33.981Z,5.20
2022-08-05T22:01:02.318Z,4.60
2022-08-05T22:03:52.067Z,5.03
2022-08-05T22:06:22.916Z,5.03
2022-08-05T22:09:01.625Z,4.47
2022-08-05T22:11:42.174Z,4.50
2022-08-05T22:14:35.011Z,4.88
2022-08-05T22:17:03.835Z,4.65
2022-08-05T22:20:01.931Z,4.75
2022-08-05T22:22:27.946Z,4.50
2022-08-05T22:25:18.109Z,4.93
2022-08-05T22:28:08.539Z,4.50
2022-08-05T22:30:55.436Z,4.60
2022-08-05T22:33:58.343Z,4.28
2022-08-05T22:36:15.354Z,4.63
2022-08-05T22:38:48.276Z,4.53
2022-08-05T22:42:04.668Z,4.45
2022-08-05T22:44:05.994Z,4.55
2022-08-05T22:46:34.108Z,4.40
2022-08-05T22:49:23.192Z,4.72
2022-08-05T22:52:06.718Z,4.40
2022-08-05T22:54:36.757Z,4.90
2022-08-05T22:57:05.654Z,4.40
2022-08-05T22:59:46.567Z,4.70
2022-08-05T23:02:29.208Z,4.25
2022-08-05T23:05:01.785Z,4.40
2022-08-05T23:07:44.968Z,4.15
2022-08-05T23:10:20.008Z,4.50
2022-08-05T23:12:51.612Z,4.53
2022-08-05T23:15:29.011Z,4.38
2022-08-05T23:18:00.551Z,4.32
2022-08-05T23:20:31.065Z,4.05
2022-08-05T23:23:00.829Z,4.20
2022-08-05T23:25:53.302Z,4.88
2022-08-05T23:28:22.123Z,4.35
2022-08-05T23:30:53.734Z,4.18
2022-08-05T23:33:26.203Z,4.35
2022-08-05T23:36:13.543Z,4.53
2022-08-05T23:38:43.785Z,4.30
2022-08-05T23:41:12.301Z,4.28
2022-08-05T23:44:06.170Z,4.10
2022-08-05T23:46:29.647Z,4.15
2022-08-05T23:49:01.051Z,4.50
2022-08-05T23:51:53.959Z,4.40
2022-08-05T23:54:25.746Z,4.20
2022-08-05T23:56:58.254Z,4.13
